sensor_id;sensor_type;location;lat;lon;timestamp;temperature;humidity
58554;DHT22;48119;53.218;6.576;2022-08-01T00:00:50;20.40;99.00
58554;DHT22;48119;53.218;6.576;2022-08-01T00:03:23;20.40;99.00
58554;DHT22;48119;53.218;6.576;2022-08-01T00:05:56;20.30;99.00
58554;DHT22;48119;53.218;6.576;2022-08-01T00:08:34;20.30;99.00
58554;DHT22;48119;53.218;6.576;2022-08-01T00:11:08;20.30;99.00
58554;DHT22;48119;53.218;6.576;2022-08-01T00:13:35;20.30;99.00
58554;DHT22;48119;53.218;6.576;2022-08-01T00:16:05;20.30;99.00
58554;DHT22;48119;53.218;6.576;2022-08-01T00:18:34;20.40;99.10
58554;DHT22;48119;53.218;6.576;2022-08-01T00:21:03;20.30;99.10
58554;DHT22;48119;53.218;6.576;2022-08-01T00:23:33;20.30;99.10
58554;DHT22;48119;53.218;6.576;2022-08-01T00:25:59;20.30;99.10
58554;DHT22;48119;53.218;6.576;2022-08-01T00:28:28;20.30;99.20
58554;DHT22;48119;53.218;6.576;2022-08-01T00:31:06;20.30;99.20
58554;DHT22;48119;53.218;6.576;2022-08-01T00:33:44;20.30;99.20
58554;DHT22;48119;53.218;6.576;2022-08-01T00:36:17;20.30;99.20
58554;DHT22;48119;53.218;6.576;2022-08-01T00:38:45;20.30;99.20
58554;DHT22;48119;53.218;6.576;2022-08-01T00:41:14;20.30;99.20
58554;DHT22;48119;53.218;6.576;2022-08-01T00:43:46;20.30;99.10
58554;DHT22;48119;53.218;6.576;2022-08-01T00:46:29;20.30;99.20
58554;DHT22;48119;53.218;6.576;2022-08-01T00:49:01;20.30;99.20
58554;DHT22;48119;53.218;6.576;2022-08-01T00:51:33;20.30;99.20
58554;DHT22;48119;53.218;6.576;2022-08-01T00:53:59;20.30;99.20
58554;DHT22;48119;53.218;6.576;2022-08-01T00:56:27;20.30;99.20
58554;DHT22;48119;53.218;6.576;2022-08-01T00:58:55;20.20;99.10
58554;DHT22;48119;53.218;6.576;2022-08-01T01:01:24;20.30;99.20
58554;DHT22;48119;53.218;6.576;2022-08-01T01:04:01;20.30;99.10
58554;DHT22;48119;53.218;6.576;2022-08-01T01:07:06;20.30;99.00
58554;DHT22;48119;53.218;6.576;2022-08-01T01:12:28;20.30;98.80
58554;DHT22;48119;53.218;6.576;2022-08-01T01:15:15;20.30;98.80
58554;DHT22;48119;53.218;6.576;2022-08-01T01:17:48;20.30;98.70
58554;DHT22;48119;53.218;6.576;2022-08-01T01:20:16;20.30;98.70
58554;DHT22;48119;53.218;6.576;2022-08-01T01:26:04;20.20;98.50
58554;DHT22;48119;53.218;6.576;2022-08-01T01:31:25;20.10;98.50
58554;DHT22;48119;53.218;6.576;2022-08-01T01:33:53;20.10;98.60
58554;DHT22;48119;53.218;6.576;2022-08-01T01:36:21;20.10;98.50
58554;DHT22;48119;53.218;6.576;2022-08-01T01:38:48;20.20;98.50
58554;DHT22;48119;53.218;6.576;2022-08-01T01:41:17;20.10;98.50
58554;DHT22;48119;53.218;6.576;2022-08-01T01:43:44;20.10;98.50
58554;DHT22;48119;53.218;6.576;2022-08-01T01:46:15;20.10;98.40
58554;DHT22;48119;53.218;6.576;2022-08-01T01:48:51;20.10;98.40
58554;DHT22;48119;53.218;6.576;2022-08-01T01:51:28;20.00;98.30
58554;DHT22;48119;53.218;6.576;2022-08-01T01:54:00;20.00;98.30
58554;DHT22;48119;53.218;6.576;2022-08-01T01:56:30;20.00;98.30
58554;DHT22;48119;53.218;6.576;2022-08-01T01:59:03;20.00;98.30
58554;DHT22;48119;53.218;6.576;2022-08-01T02:01:31;20.00;98.30
58554;DHT22;48119;53.218;6.576;2022-08-01T02:04:04;20.00;98.20
58554;DHT22;48119;53.218;6.576;2022-08-01T02:06:33;20.00;98.20
58554;DHT22;48119;53.218;6.576;2022-08-01T02:09:07;20.00;98.10
58554;DHT22;48119;53.218;6.576;2022-08-01T02:11:45;20.00;98.00
58554;DHT22;48119;53.218;6.576;2022-08-01T02:14:16;20.00;98.00
58554;DHT22;48119;53.218;6.576;2022-08-01T02:16:51;20.00;98.00
58554;DHT22;48119;53.218;6.576;2022-08-01T02:19:31;20.00;97.90
58554;DHT22;48119;53.218;6.576;2022-08-01T02:22:04;20.00;97.90
58554;DHT22;48119;53.218;6.576;2022-08-01T02:28:04;20.00;97.90
58554;DHT22;48119;53.218;6.576;2022-08-01T02:30:38;20.00;97.80
58554;DHT22;48119;53.218;6.576;2022-08-01T02:33:16;20.00;97.80
58554;DHT22;48119;53.218;6.576;2022-08-01T02:35:56;20.00;97.80
58554;DHT22;48119;53.218;6.576;2022-08-01T02:38:25;20.00;97.80
58554;DHT22;48119;53.218;6.576;2022-08-01T02:40:54;20.00;97.70
58554;DHT22;48119;53.218;6.576;2022-08-01T02:43:28;20.00;97.60
58554;DHT22;48119;53.218;6.576;2022-08-01T02:46:02;20.00;97.60
58554;DHT22;48119;53.218;6.576;2022-08-01T02:48:39;20.00;97.60
58554;DHT22;48119;53.218;6.576;2022-08-01T02:51:12;20.00;97.60
58554;DHT22;48119;53.218;6.576;2022-08-01T02:53:42;20.00;97.50
58554;DHT22;48119;53.218;6.576;2022-08-01T02:56:30;20.00;97.50
58554;DHT22;48119;53.218;6.576;2022-08-01T02:59:11;20.00;97.40
58554;DHT22;48119;53.218;6.576;2022-08-01T03:01:39;19.90;97.10
58554;DHT22;48119;53.218;6.576;2022-08-01T03:04:20;19.90;97.20
58554;DHT22;48119;53.218;6.576;2022-08-01T03:06:54;19.90;97.20
58554;DHT22;48119;53.218;6.576;2022-08-01T03:09:26;19.90;97.10
58554;DHT22;48119;53.218;6.576;2022-08-01T03:12:03;19.90;97.00
58554;DHT22;48119;53.218;6.576;2022-08-01T03:14:36;19.90;96.90
58554;DHT22;48119;53.218;6.576;2022-08-01T03:17:09;19.80;96.80
58554;DHT22;48119;53.218;6.576;2022-08-01T03:19:38;19.80;96.80
58554;DHT22;48119;53.218;6.576;2022-08-01T03:22:08;19.80;96.90
58554;DHT22;48119;53.218;6.576;2022-08-01T03:24:35;19.80;96.90
58554;DHT22;48119;53.218;6.576;2022-08-01T03:27:13;19.80;97.00
58554;DHT22;48119;53.218;6.576;2022-08-01T03:29:46;19.90;96.90
58554;DHT22;48119;53.218;6.576;2022-08-01T03:32:22;19.80;96.90
58554;DHT22;48119;53.218;6.576;2022-08-01T03:34:51;19.70;96.80
58554;DHT22;48119;53.218;6.576;2022-08-01T03:37:41;19.70;96.80
58554;DHT22;48119;53.218;6.576;2022-08-01T03:44:00;19.70;96.90
58554;DHT22;48119;53.218;6.576;2022-08-01T03:46:36;19.70;97.00
58554;DHT22;48119;53.218;6.576;2022-08-01T03:49:16;19.70;97.10
58554;DHT22;48119;53.218;6.576;2022-08-01T03:51:55;19.60;97.10
58554;DHT22;48119;53.218;6.576;2022-08-01T03:54:28;19.60;97.40
58554;DHT22;48119;53.218;6.576;2022-08-01T03:57:05;19.60;97.10
58554;DHT22;48119;53.218;6.576;2022-08-01T03:59:32;19.70;97.10
58554;DHT22;48119;53.218;6.576;2022-08-01T04:02:10;19.60;97.00
58554;DHT22;48119;53.218;6.576;2022-08-01T04:04:41;19.70;96.90
58554;DHT22;48119;53.218;6.576;2022-08-01T04:10:22;19.60;96.60
58554;DHT22;48119;53.218;6.576;2022-08-01T04:12:54;19.50;96.60
58554;DHT22;48119;53.218;6.576;2022-08-01T04:15:22;19.50;96.50
58554;DHT22;48119;53.218;6.576;2022-08-01T04:17:51;19.50;96.40
58554;DHT22;48119;53.218;6.576;2022-08-01T04:20:27;19.60;96.30
58554;DHT22;48119;53.218;6.576;2022-08-01T04:23:06;19.50;96.10
58554;DHT22;48119;53.218;6.576;2022-08-01T04:25:39;19.50;96.10
58554;DHT22;48119;53.218;6.576;2022-08-01T04:28:13;19.50;96.10
58554;DHT22;48119;53.218;6.576;2022-08-01T04:30:44;19.50;96.00
58554;DHT22;48119;53.218;6.576;2022-08-01T04:33:19;19.50;95.80
58554;DHT22;48119;53.218;6.576;2022-08-01T04:35:58;19.50;95.70
58554;DHT22;48119;53.218;6.576;2022-08-01T04:38:32;19.50;95.70
58554;DHT22;48119;53.218;6.576;2022-08-01T04:41:10;19.50;95.60
58554;DHT22;48119;53.218;6.576;2022-08-01T04:43:40;19.50;95.70
58554;DHT22;48119;53.218;6.576;2022-08-01T04:46:08;19.50;95.70
58554;DHT22;48119;53.218;6.576;2022-08-01T04:48:47;19.50;95.70
58554;DHT22;48119;53.218;6.576;2022-08-01T04:51:19;19.50;95.60
58554;DHT22;48119;53.218;6.576;2022-08-01T04:53:50;19.50;95.60
58554;DHT22;48119;53.218;6.576;2022-08-01T04:56:21;19.50;95.50
58554;DHT22;48119;53.218;6.576;2022-08-01T04:58:50;19.50;95.50
58554;DHT22;48119;53.218;6.576;2022-08-01T05:01:38;19.40;95.50
58554;DHT22;48119;53.218;6.576;2022-08-01T05:04:08;19.40;95.50
58554;DHT22;48119;53.218;6.576;2022-08-01T05:06:37;19.50;95.50
58554;DHT22;48119;53.218;6.576;2022-08-01T05:09:06;19.50;95.50
58554;DHT22;48119;53.218;6.576;2022-08-01T05:11:32;19.50;95.40
58554;DHT22;48119;53.218;6.576;2022-08-01T05:14:00;19.50;95.30
58554;DHT22;48119;53.218;6.576;2022-08-01T05:16:26;19.40;95.20
58554;DHT22;48119;53.218;6.576;2022-08-01T05:18:58;19.40;95.20
58554;DHT22;48119;53.218;6.576;2022-08-01T05:21:24;19.40;95.20
58554;DHT22;48119;53.218;6.576;2022-08-01T05:24:13;19.40;95.20
58554;DHT22;48119;53.218;6.576;2022-08-01T05:26:42;19.40;95.10
58554;DHT22;48119;53.218;6.576;2022-08-01T05:29:10;19.40;95.20
58554;DHT22;48119;53.218;6.576;2022-08-01T05:31:41;19.40;95.10
58554;DHT22;48119;53.218;6.576;2022-08-01T05:34:15;19.40;95.10
58554;DHT22;48119;53.218;6.576;2022-08-01T05:36:54;19.40;95.20
58554;DHT22;48119;53.218;6.576;2022-08-01T05:39:24;19.40;95.30
58554;DHT22;48119;53.218;6.576;2022-08-01T05:41:55;19.40;95.30
58554;DHT22;48119;53.218;6.576;2022-08-01T05:44:23;19.40;95.30
58554;DHT22;48119;53.218;6.576;2022-08-01T05:52:09;19.40;95.30
58554;DHT22;48119;53.218;6.576;2022-08-01T05:54:35;19.40;95.10
58554;DHT22;48119;53.218;6.576;2022-08-01T05:57:04;19.40;95.10
58554;DHT22;48119;53.218;6.576;2022-08-01T05:59:30;19.40;94.90
58554;DHT22;48119;53.218;6.576;2022-08-01T06:01:56;19.40;94.80
58554;DHT22;48119;53.218;6.576;2022-08-01T06:04:22;19.40;94.80
58554;DHT22;48119;53.218;6.576;2022-08-01T06:06:53;19.30;94.80
58554;DHT22;48119;53.218;6.576;2022-08-01T06:09:34;19.30;94.60
58554;DHT22;48119;53.218;6.576;2022-08-01T06:12:11;19.30;94.50
58554;DHT22;48119;53.218;6.576;2022-08-01T06:14:43;19.30;94.50
58554;DHT22;48119;53.218;6.576;2022-08-01T06:17:11;19.30;94.30
58554;DHT22;48119;53.218;6.576;2022-08-01T06:19:37;19.30;94.20
58554;DHT22;48119;53.218;6.576;2022-08-01T06:24:51;19.30;94.20
58554;DHT22;48119;53.218;6.576;2022-08-01T06:27:30;19.30;94.10
58554;DHT22;48119;53.218;6.576;2022-08-01T06:29:56;19.30;94.00
58554;DHT22;48119;53.218;6.576;2022-08-01T06:32:22;19.30;93.90
58554;DHT22;48119;53.218;6.576;2022-08-01T06:35:02;19.30;93.80
58554;DHT22;48119;53.218;6.576;2022-08-01T06:37:39;19.30;93.60
58554;DHT22;48119;53.218;6.576;2022-08-01T06:40:12;19.30;93.60
58554;DHT22;48119;53.218;6.576;2022-08-01T06:42:42;19.30;93.40
58554;DHT22;48119;53.218;6.576;2022-08-01T06:45:14;19.30;93.30
58554;DHT22;48119;53.218;6.576;2022-08-01T06:47:45;19.30;93.30
58554;DHT22;48119;53.218;6.576;2022-08-01T06:50:16;19.30;93.20
58554;DHT22;48119;53.218;6.576;2022-08-01T06:52:48;19.30;93.30
58554;DHT22;48119;53.218;6.576;2022-08-01T06:55:22;19.30;93.40
58554;DHT22;48119;53.218;6.576;2022-08-01T06:57:55;19.30;93.30
58554;DHT22;48119;53.218;6.576;2022-08-01T07:00:24;19.30;93.20
58554;DHT22;48119;53.218;6.576;2022-08-01T07:03:01;19.30;93.00
58554;DHT22;48119;53.218;6.576;2022-08-01T07:05:27;19.30;92.90
58554;DHT22;48119;53.218;6.576;2022-08-01T07:08:01;19.30;92.80
58554;DHT22;48119;53.218;6.576;2022-08-01T07:10:29;19.30;92.60
58554;DHT22;48119;53.218;6.576;2022-08-01T07:12:57;19.30;92.80
58554;DHT22;48119;53.218;6.576;2022-08-01T07:15:28;19.30;92.90
58554;DHT22;48119;53.218;6.576;2022-08-01T07:18:06;19.40;92.70
58554;DHT22;48119;53.218;6.576;2022-08-01T07:20:37;19.40;92.70
58554;DHT22;48119;53.218;6.576;2022-08-01T07:23:08;19.40;92.60
58554;DHT22;48119;53.218;6.576;2022-08-01T07:25:34;19.40;92.60
58554;DHT22;48119;53.218;6.576;2022-08-01T07:28:07;19.40;92.60
58554;DHT22;48119;53.218;6.576;2022-08-01T07:30:36;19.40;92.60
58554;DHT22;48119;53.218;6.576;2022-08-01T07:33:03;19.40;92.50
58554;DHT22;48119;53.218;6.576;2022-08-01T07:35:34;19.50;92.40
58554;DHT22;48119;53.218;6.576;2022-08-01T07:38:04;19.50;92.30
58554;DHT22;48119;53.218;6.576;2022-08-01T07:40:30;19.50;92.20
58554;DHT22;48119;53.218;6.576;2022-08-01T07:43:03;19.50;92.10
58554;DHT22;48119;53.218;6.576;2022-08-01T07:45:31;19.50;92.10
58554;DHT22;48119;53.218;6.576;2022-08-01T07:48:02;19.60;92.00
58554;DHT22;48119;53.218;6.576;2022-08-01T07:50:31;19.50;91.90
58554;DHT22;48119;53.218;6.576;2022-08-01T07:53:11;19.60;91.70
58554;DHT22;48119;53.218;6.576;2022-08-01T07:55:47;19.50;91.50
58554;DHT22;48119;53.218;6.576;2022-08-01T07:58:21;19.60;91.50
58554;DHT22;48119;53.218;6.576;2022-08-01T08:00:52;19.60;91.50
58554;DHT22;48119;53.218;6.576;2022-08-01T08:03:27;19.60;91.40
58554;DHT22;48119;53.218;6.576;2022-08-01T08:05:53;19.60;91.20
58554;DHT22;48119;53.218;6.576;2022-08-01T08:08:22;19.60;91.00
58554;DHT22;48119;53.218;6.576;2022-08-01T08:11:00;19.60;91.00
58554;DHT22;48119;53.218;6.576;2022-08-01T08:13:28;19.60;91.10
58554;DHT22;48119;53.218;6.576;2022-08-01T08:16:07;19.70;91.10
58554;DHT22;48119;53.218;6.576;2022-08-01T08:18:35;19.70;91.00
58554;DHT22;48119;53.218;6.576;2022-08-01T08:21:10;19.70;91.00
58554;DHT22;48119;53.218;6.576;2022-08-01T08:23:36;19.70;90.80
58554;DHT22;48119;53.218;6.576;2022-08-01T08:26:22;19.80;90.60
58554;DHT22;48119;53.218;6.576;2022-08-01T08:28:49;19.80;90.60
58554;DHT22;48119;53.218;6.576;2022-08-01T08:31:20;19.80;90.60
58554;DHT22;48119;53.218;6.576;2022-08-01T08:33:45;19.80;90.40
58554;DHT22;48119;53.218;6.576;2022-08-01T08:36:13;19.90;90.20
58554;DHT22;48119;53.218;6.576;2022-08-01T08:38:43;19.80;90.00
58554;DHT22;48119;53.218;6.576;2022-08-01T08:41:14;19.90;90.10
58554;DHT22;48119;53.218;6.576;2022-08-01T08:43:41;19.90;90.10
58554;DHT22;48119;53.218;6.576;2022-08-01T08:46:14;19.90;90.00
58554;DHT22;48119;53.218;6.576;2022-08-01T08:48:41;19.90;89.30
58554;DHT22;48119;53.218;6.576;2022-08-01T08:51:18;19.90;89.60
58554;DHT22;48119;53.218;6.576;2022-08-01T08:53:49;20.00;89.70
58554;DHT22;48119;53.218;6.576;2022-08-01T08:56:18;20.00;89.60
58554;DHT22;48119;53.218;6.576;2022-08-01T08:58:47;19.90;89.10
58554;DHT22;48119;53.218;6.576;2022-08-01T09:01:21;20.00;88.90
58554;DHT22;48119;53.218;6.576;2022-08-01T09:03:56;20.00;88.90
58554;DHT22;48119;53.218;6.576;2022-08-01T09:06:25;20.10;89.10
58554;DHT22;48119;53.218;6.576;2022-08-01T09:09:03;20.10;88.70
58554;DHT22;48119;53.218;6.576;2022-08-01T09:11:29;20.10;88.30
58554;DHT22;48119;53.218;6.576;2022-08-01T09:14:10;20.10;88.30
58554;DHT22;48119;53.218;6.576;2022-08-01T09:16:40;20.20;87.80
58554;DHT22;48119;53.218;6.576;2022-08-01T09:19:22;20.20;88.10
58554;DHT22;48119;53.218;6.576;2022-08-01T09:21:58;20.20;88.20
58554;DHT22;48119;53.218;6.576;2022-08-01T09:24:25;20.20;87.80
58554;DHT22;48119;53.218;6.576;2022-08-01T09:26:52;20.20;87.50
58554;DHT22;48119;53.218;6.576;2022-08-01T09:29:32;20.20;87.30
58554;DHT22;48119;53.218;6.576;2022-08-01T09:32:07;20.30;87.10
58554;DHT22;48119;53.218;6.576;2022-08-01T09:34:35;20.30;87.40
58554;DHT22;48119;53.218;6.576;2022-08-01T09:37:08;20.30;87.20
58554;DHT22;48119;53.218;6.576;2022-08-01T09:39:42;20.20;86.70
58554;DHT22;48119;53.218;6.576;2022-08-01T09:42:40;20.20;86.20
58554;DHT22;48119;53.218;6.576;2022-08-01T09:45:17;20.20;85.90
58554;DHT22;48119;53.218;6.576;2022-08-01T09:48:16;20.20;86.10
58554;DHT22;48119;53.218;6.576;2022-08-01T09:50:59;20.20;85.90
58554;DHT22;48119;53.218;6.576;2022-08-01T09:53:26;20.20;85.90
58554;DHT22;48119;53.218;6.576;2022-08-01T09:55:54;20.20;86.20
58554;DHT22;48119;53.218;6.576;2022-08-01T09:58:27;20.20;86.30
58554;DHT22;48119;53.218;6.576;2022-08-01T10:00:59;20.30;85.90
58554;DHT22;48119;53.218;6.576;2022-08-01T10:03:35;20.30;86.00
58554;DHT22;48119;53.218;6.576;2022-08-01T10:06:19;20.30;86.00
58554;DHT22;48119;53.218;6.576;2022-08-01T10:08:53;20.40;84.80
58554;DHT22;48119;53.218;6.576;2022-08-01T10:11:22;20.40;85.10
58554;DHT22;48119;53.218;6.576;2022-08-01T10:13:48;20.40;85.40
58554;DHT22;48119;53.218;6.576;2022-08-01T10:16:16;20.40;84.30
58554;DHT22;48119;53.218;6.576;2022-08-01T10:18:43;20.40;83.90
58554;DHT22;48119;53.218;6.576;2022-08-01T10:21:12;20.40;84.10
58554;DHT22;48119;53.218;6.576;2022-08-01T10:23:41;20.50;84.50
58554;DHT22;48119;53.218;6.576;2022-08-01T10:26:12;20.50;84.20
58554;DHT22;48119;53.218;6.576;2022-08-01T10:28:44;20.50;84.00
58554;DHT22;48119;53.218;6.576;2022-08-01T10:31:18;20.50;84.00
58554;DHT22;48119;53.218;6.576;2022-08-01T10:33:45;20.60;83.30
58554;DHT22;48119;53.218;6.576;2022-08-01T10:36:18;20.60;83.10
58554;DHT22;48119;53.218;6.576;2022-08-01T10:38:52;20.60;83.10
58554;DHT22;48119;53.218;6.576;2022-08-01T10:41:27;20.60;82.70
58554;DHT22;48119;53.218;6.576;2022-08-01T10:43:55;20.60;82.20
58554;DHT22;48119;53.218;6.576;2022-08-01T10:46:29;20.60;82.70
58554;DHT22;48119;53.218;6.576;2022-08-01T10:49:06;20.60;82.20
58554;DHT22;48119;53.218;6.576;2022-08-01T10:51:36;20.60;81.70
58554;DHT22;48119;53.218;6.576;2022-08-01T10:54:06;20.60;81.60
58554;DHT22;48119;53.218;6.576;2022-08-01T10:56:50;20.60;81.60
58554;DHT22;48119;53.218;6.576;2022-08-01T10:59:25;20.60;80.20
58554;DHT22;48119;53.218;6.576;2022-08-01T11:02:04;20.60;81.30
58554;DHT22;48119;53.218;6.576;2022-08-01T11:04:54;20.70;81.50
58554;DHT22;48119;53.218;6.576;2022-08-01T11:07:34;20.70;81.00
58554;DHT22;48119;53.218;6.576;2022-08-01T11:12:47;20.70;79.60
58554;DHT22;48119;53.218;6.576;2022-08-01T11:15:16;20.70;80.60
58554;DHT22;48119;53.218;6.576;2022-08-01T11:18:00;20.70;80.90
58554;DHT22;48119;53.218;6.576;2022-08-01T11:20:34;20.70;80.60
58554;DHT22;48119;53.218;6.576;2022-08-01T11:28:21;20.90;79.10
58554;DHT22;48119;53.218;6.576;2022-08-01T11:31:24;20.90;78.40
58554;DHT22;48119;53.218;6.576;2022-08-01T11:36:20;20.90;80.30
58554;DHT22;48119;53.218;6.576;2022-08-01T11:41:21;20.90;79.00
58554;DHT22;48119;53.218;6.576;2022-08-01T11:44:09;21.00;77.90
58554;DHT22;48119;53.218;6.576;2022-08-01T11:46:52;21.00;77.50
58554;DHT22;48119;53.218;6.576;2022-08-01T11:49:33;21.00;77.50
58554;DHT22;48119;53.218;6.576;2022-08-01T11:55:23;21.00;77.00
58554;DHT22;48119;53.218;6.576;2022-08-01T11:57:31;21.00;76.50
58554;DHT22;48119;53.218;6.576;2022-08-01T12:00:13;21.00;75.30
58554;DHT22;48119;53.218;6.576;2022-08-01T12:03:00;21.00;74.90
58554;DHT22;48119;53.218;6.576;2022-08-01T12:05:30;20.90;75.40
58554;DHT22;48119;53.218;6.576;2022-08-01T12:08:03;20.90;75.50
58554;DHT22;48119;53.218;6.576;2022-08-01T12:10:48;20.90;75.60
58554;DHT22;48119;53.218;6.576;2022-08-01T12:13:22;20.90;75.60
58554;DHT22;48119;53.218;6.576;2022-08-01T12:16:07;21.00;75.20
58554;DHT22;48119;53.218;6.576;2022-08-01T12:18:38;21.00;75.10
58554;DHT22;48119;53.218;6.576;2022-08-01T12:21:14;21.00;75.20
58554;DHT22;48119;53.218;6.576;2022-08-01T12:23:42;21.00;75.00
58554;DHT22;48119;53.218;6.576;2022-08-01T12:26:14;21.10;74.50
58554;DHT22;48119;53.218;6.576;2022-08-01T12:28:45;21.10;74.20
58554;DHT22;48119;53.218;6.576;2022-08-01T12:31:38;21.10;74.40
58554;DHT22;48119;53.218;6.576;2022-08-01T12:34:29;21.10;73.30
58554;DHT22;48119;53.218;6.576;2022-08-01T12:37:06;21.10;73.10
58554;DHT22;48119;53.218;6.576;2022-08-01T12:39:40;21.20;73.60
58554;DHT22;48119;53.218;6.576;2022-08-01T12:42:12;21.10;73.50
58554;DHT22;48119;53.218;6.576;2022-08-01T12:44:39;21.10;73.50
58554;DHT22;48119;53.218;6.576;2022-08-01T12:47:09;21.10;73.00
58554;DHT22;48119;53.218;6.576;2022-08-01T12:49:41;21.10;72.80
58554;DHT22;48119;53.218;6.576;2022-08-01T12:52:07;21.10;74.10
58554;DHT22;48119;53.218;6.576;2022-08-01T12:57:42;21.20;74.40
58554;DHT22;48119;53.218;6.576;2022-08-01T13:03:20;21.20;74.70
58554;DHT22;48119;53.218;6.576;2022-08-01T13:05:52;21.20;74.70
58554;DHT22;48119;53.218;6.576;2022-08-01T13:08:32;21.20;74.60
58554;DHT22;48119;53.218;6.576;2022-08-01T13:11:09;21.20;74.70
58554;DHT22;48119;53.218;6.576;2022-08-01T13:13:51;21.20;73.90
58554;DHT22;48119;53.218;6.576;2022-08-01T13:16:31;21.10;74.20
58554;DHT22;48119;53.218;6.576;2022-08-01T13:19:00;21.20;74.40
58554;DHT22;48119;53.218;6.576;2022-08-01T13:21:30;21.20;73.60
58554;DHT22;48119;53.218;6.576;2022-08-01T13:24:12;21.20;72.70
58554;DHT22;48119;53.218;6.576;2022-08-01T13:26:51;21.20;73.10
58554;DHT22;48119;53.218;6.576;2022-08-01T13:29:54;21.30;73.60
58554;DHT22;48119;53.218;6.576;2022-08-01T13:32:39;21.30;74.00
58554;DHT22;48119;53.218;6.576;2022-08-01T13:35:09;21.30;73.60
58554;DHT22;48119;53.218;6.576;2022-08-01T13:37:53;21.30;73.60
58554;DHT22;48119;53.218;6.576;2022-08-01T13:40:26;21.30;74.30
58554;DHT22;48119;53.218;6.576;2022-08-01T13:43:02;21.30;74.90
58554;DHT22;48119;53.218;6.576;2022-08-01T13:45:28;21.40;74.60
58554;DHT22;48119;53.218;6.576;2022-08-01T13:47:59;21.30;74.10
58554;DHT22;48119;53.218;6.576;2022-08-01T13:50:32;21.30;73.60
58554;DHT22;48119;53.218;6.576;2022-08-01T13:53:10;21.30;73.90
58554;DHT22;48119;53.218;6.576;2022-08-01T13:55:36;21.30;73.30
58554;DHT22;48119;53.218;6.576;2022-08-01T13:58:07;21.30;73.30
58554;DHT22;48119;53.218;6.576;2022-08-01T14:00:36;21.30;73.10
58554;DHT22;48119;53.218;6.576;2022-08-01T14:03:12;21.30;73.40
58554;DHT22;48119;53.218;6.576;2022-08-01T14:05:38;21.30;73.20
58554;DHT22;48119;53.218;6.576;2022-08-01T14:08:05;21.20;73.10
58554;DHT22;48119;53.218;6.576;2022-08-01T14:10:39;21.20;73.10
58554;DHT22;48119;53.218;6.576;2022-08-01T14:13:08;21.20;73.30
58554;DHT22;48119;53.218;6.576;2022-08-01T14:15:41;21.20;73.10
58554;DHT22;48119;53.218;6.576;2022-08-01T14:18:08;21.20;73.30
58554;DHT22;48119;53.218;6.576;2022-08-01T14:20:47;21.20;73.30
58554;DHT22;48119;53.218;6.576;2022-08-01T14:23:21;21.20;73.60
58554;DHT22;48119;53.218;6.576;2022-08-01T14:25:47;21.10;74.00
58554;DHT22;48119;53.218;6.576;2022-08-01T14:28:24;21.20;74.30
58554;DHT22;48119;53.218;6.576;2022-08-01T14:30:54;21.30;74.20
58554;DHT22;48119;53.218;6.576;2022-08-01T14:33:23;21.20;74.20
58554;DHT22;48119;53.218;6.576;2022-08-01T14:36:01;21.30;73.80
58554;DHT22;48119;53.218;6.576;2022-08-01T14:38:34;21.30;73.60
58554;DHT22;48119;53.218;6.576;2022-08-01T14:41:01;21.20;73.30
58554;DHT22;48119;53.218;6.576;2022-08-01T14:43:28;21.30;73.70
58554;DHT22;48119;53.218;6.576;2022-08-01T14:45:58;21.30;73.70
58554;DHT22;48119;53.218;6.576;2022-08-01T14:48:24;21.30;73.90
58554;DHT22;48119;53.218;6.576;2022-08-01T14:50:56;21.30;74.70
58554;DHT22;48119;53.218;6.576;2022-08-01T14:53:42;21.30;74.50
58554;DHT22;48119;53.218;6.576;2022-08-01T14:56:08;21.30;74.40
58554;DHT22;48119;53.218;6.576;2022-08-01T14:58:52;21.30;74.40
58554;DHT22;48119;53.218;6.576;2022-08-01T15:01:24;21.30;73.90
58554;DHT22;48119;53.218;6.576;2022-08-01T15:03:52;21.30;73.90
58554;DHT22;48119;53.218;6.576;2022-08-01T15:06:30;21.30;74.00
58554;DHT22;48119;53.218;6.576;2022-08-01T15:08:56;21.20;73.70
58554;DHT22;48119;53.218;6.576;2022-08-01T15:11:29;21.20;73.40
58554;DHT22;48119;53.218;6.576;2022-08-01T15:14:00;21.10;73.30
58554;DHT22;48119;53.218;6.576;2022-08-01T15:16:47;21.10;73.20
58554;DHT22;48119;53.218;6.576;2022-08-01T15:19:15;21.10;73.50
58554;DHT22;48119;53.218;6.576;2022-08-01T15:21:41;21.10;74.10
58554;DHT22;48119;53.218;6.576;2022-08-01T15:24:10;21.10;74.60
58554;DHT22;48119;53.218;6.576;2022-08-01T15:26:39;21.10;73.80
58554;DHT22;48119;53.218;6.576;2022-08-01T15:29:07;21.10;73.50
58554;DHT22;48119;53.218;6.576;2022-08-01T15:31:36;21.00;73.20
58554;DHT22;48119;53.218;6.576;2022-08-01T15:34:02;21.10;73.40
58554;DHT22;48119;53.218;6.576;2022-08-01T15:36:28;21.10;73.60
58554;DHT22;48119;53.218;6.576;2022-08-01T15:38:54;21.10;73.40
58554;DHT22;48119;53.218;6.576;2022-08-01T15:41:23;21.10;73.60
58554;DHT22;48119;53.218;6.576;2022-08-01T15:43:49;21.10;73.60
58554;DHT22;48119;53.218;6.576;2022-08-01T15:46:20;21.20;73.60
58554;DHT22;48119;53.218;6.576;2022-08-01T15:48:48;21.10;73.40
58554;DHT22;48119;53.218;6.576;2022-08-01T15:51:14;21.10;73.40
58554;DHT22;48119;53.218;6.576;2022-08-01T15:53:42;21.10;73.20
58554;DHT22;48119;53.218;6.576;2022-08-01T15:56:12;21.10;73.30
58554;DHT22;48119;53.218;6.576;2022-08-01T15:58:44;21.10;73.20
58554;DHT22;48119;53.218;6.576;2022-08-01T16:01:10;21.10;73.20
58554;DHT22;48119;53.218;6.576;2022-08-01T16:03:35;21.10;73.10
58554;DHT22;48119;53.218;6.576;2022-08-01T16:06:01;21.10;73.40
58554;DHT22;48119;53.218;6.576;2022-08-01T16:08:33;21.10;73.80
58554;DHT22;48119;53.218;6.576;2022-08-01T16:10:58;21.10;73.60
58554;DHT22;48119;53.218;6.576;2022-08-01T16:13:24;21.10;73.10
58554;DHT22;48119;53.218;6.576;2022-08-01T16:15:50;21.10;72.80
58554;DHT22;48119;53.218;6.576;2022-08-01T16:18:16;21.10;72.80
58554;DHT22;48119;53.218;6.576;2022-08-01T16:20:42;21.10;73.40
58554;DHT22;48119;53.218;6.576;2022-08-01T16:23:10;21.10;73.20
58554;DHT22;48119;53.218;6.576;2022-08-01T16:25:36;21.10;73.40
58554;DHT22;48119;53.218;6.576;2022-08-01T16:28:02;21.10;73.10
58554;DHT22;48119;53.218;6.576;2022-08-01T16:30:28;21.00;72.90
58554;DHT22;48119;53.218;6.576;2022-08-01T16:32:54;21.00;72.90
58554;DHT22;48119;53.218;6.576;2022-08-01T16:35:20;21.00;73.40
58554;DHT22;48119;53.218;6.576;2022-08-01T16:37:46;21.00;73.60
58554;DHT22;48119;53.218;6.576;2022-08-01T16:40:12;21.00;73.40
58554;DHT22;48119;53.218;6.576;2022-08-01T16:42:40;21.00;72.80
58554;DHT22;48119;53.218;6.576;2022-08-01T16:45:09;21.00;72.50
58554;DHT22;48119;53.218;6.576;2022-08-01T16:47:36;21.00;72.30
58554;DHT22;48119;53.218;6.576;2022-08-01T16:50:03;21.00;72.50
58554;DHT22;48119;53.218;6.576;2022-08-01T16:52:32;20.90;72.20